Time;durP1;ratioP1;P1;durP2;ratioP2;P2;SDS_P1;SDS_P2;PMS_P1;PMS_P2;Temp;Humidity;BMP_temperature;BMP_pressure;BME280_temperature;BME280_humidity;BME280_pressure;Samples;Min_cycle;Max_cycle;Signal;HPM_P1;HPM_P2
2021/04/08 00:02:29;;;;;;;12.17;5.40;;;;;;;2.05;84.96;99994.00;5074564;56;1134625;-74
2021/04/08 00:07:54;;;;;;;4.55;3.22;;;;;;;2.08;85.64;99985.18;5074306;56;1134342;-73
2021/04/08 00:13:20;;;;;;;7.30;4.33;;;;;;;2.11;86.82;99990.24;5074342;56;1132347;-73
2021/04/08 00:18:46;;;;;;;9.27;5.00;;;;;;;2.16;86.72;99989.52;5074889;56;1132477;-73
2021/04/08 00:24:11;;;;;;;7.17;5.57;;;;;;;2.19;87.26;99984.61;5074284;57;1132213;-72
2021/04/08 00:29:37;;;;;;;5.03;3.40;;;;;;;2.22;87.28;99990.98;5074398;56;1132438;-73
2021/04/08 00:35:03;;;;;;;7.60;5.72;;;;;;;2.28;87.50;100003.73;5074376;56;1132497;-73
2021/04/08 00:40:28;;;;;;;8.27;5.90;;;;;;;2.31;87.44;100007.45;5074284;55;1134752;-73
2021/04/08 00:45:55;;;;;;;7.37;4.83;;;;;;;2.35;87.63;100007.23;5074554;56;1134420;-72
2021/04/08 00:51:20;;;;;;;10.47;6.23;;;;;;;2.39;87.92;100006.61;5102024;56;1134501;-74
2021/04/08 00:56:47;;;;;;;8.90;6.23;;;;;;;2.40;87.80;100011.75;5108446;56;1136966;-72
2021/04/08 01:02:13;;;;;;;12.03;7.20;;;;;;;2.41;87.54;100021.73;5108482;56;1134399;-72
2021/04/08 01:07:39;;;;;;;6.40;4.57;;;;;;;2.42;87.71;100023.42;5108116;56;1136538;-73
2021/04/08 01:13:08;;;;;;;7.75;5.60;;;;;;;2.44;88.31;100030.72;5108375;56;1134738;-72
2021/04/08 01:19:10;;;;;;;7.97;4.83;;;;;;;2.43;87.82;100031.64;5108496;57;1134468;-72
2021/04/08 01:25:01;;;;;;;3.90;3.30;;;;;;;2.46;87.61;100039.28;4832398;59;1134692;-74
2021/04/08 01:30:47;;;;;;;3.90;2.83;;;;;;;2.44;88.10;100050.29;4807790;59;1134782;-74
2021/04/08 01:36:24;;;;;;;6.78;4.15;;;;;;;2.42;88.43;100053.44;4754789;60;1134771;-74
2021/04/08 01:41:50;;;;;;;7.73;2.93;;;;;;;2.41;88.21;100062.19;4837828;59;1134468;-74
2021/04/08 01:47:16;;;;;;;8.47;3.50;;;;;;;2.41;87.73;100069.55;4868549;58;1134737;-74
2021/04/08 01:52:43;;;;;;;2.83;1.60;;;;;;;2.43;87.05;100079.45;4868701;59;1134801;-73
2021/04/08 01:58:11;;;;;;;5.00;2.70;;;;;;;2.43;87.80;100080.77;4916102;58;1134290;-75
2021/04/08 02:03:38;;;;;;;3.57;2.30;;;;;;;2.43;87.83;100086.45;5060305;57;1134396;-74
2021/04/08 02:09:06;;;;;;;6.30;2.98;;;;;;;2.43;87.29;100082.07;5090625;56;1134406;-72
2021/04/08 02:14:32;;;;;;;2.03;1.83;;;;;;;2.45;87.06;100091.09;5117791;57;1134575;-73
2021/04/08 02:19:58;;;;;;;1.84;1.72;;;;;;;2.46;86.72;100104.53;5117730;57;1134478;-75
2021/04/08 02:25:27;;;;;;;1.77;1.63;;;;;;;2.41;87.07;100110.00;5117501;57;1134391;-74
2021/04/08 11:45:32;;;;;;;4.80;2.23;;;;;;;5.04;79.88;100832.12;5189175;54;46678;-76
2021/04/08 11:51:06;;;;;;;4.27;1.80;;;;;;;4.62;79.79;100836.84;4960245;57;1130468;-75
2021/04/08 11:56:40;;;;;;;4.75;1.70;;;;;;;4.43;81.76;100835.58;4962000;56;1134834;-77
2021/04/08 12:02:05;;;;;;;2.87;1.52;;;;;;;4.49;83.11;100842.67;4862246;58;1134614;-76
2021/04/08 12:07:47;;;;;;;3.37;2.10;;;;;;;5.33;85.03;100836.39;4862557;58;1134691;-76
2021/04/08 12:13:15;;;;;;;4.17;2.07;;;;;;;5.33;85.03;100836.39;4862607;58;1134534;-75
2021/04/08 12:18:40;;;;;;;3.73;2.30;;;;;;;5.60;82.45;100845.46;4879413;58;1134715;-74
2021/04/08 12:24:10;;;;;;;3.10;1.80;;;;;;;5.68;82.80;100848.98;4947626;57;1134848;-73
2021/04/08 12:29:35;;;;;;;6.43;2.10;;;;;;;5.64;80.95;100847.01;4829637;59;1135025;-73
2021/04/08 12:35:01;;;;;;;2.10;1.90;;;;;;;5.61;79.74;100856.34;4802983;60;1134510;-76
2021/04/08 12:40:26;;;;;;;3.20;2.37;;;;;;;5.79;77.95;100859.33;4755040;59;1134788;-75
2021/04/08 12:45:51;;;;;;;2.53;1.70;;;;;;;5.89;78.68;100878.94;4899771;58;1134328;-76
2021/04/08 12:51:17;;;;;;;4.57;2.43;;;;;;;6.17;76.51;100877.00;4961838;57;1134432;-74
2021/04/08 12:56:42;;;;;;;4.57;2.20;;;;;;;6.40;75.12;100879.72;4826281;59;1134479;-72
2021/04/08 13:02:08;;;;;;;7.87;2.40;;;;;;;6.62;76.22;100877.59;4943971;58;1136510;-74
2021/04/08 13:07:34;;;;;;;8.73;4.03;;;;;;;6.73;73.52;100884.87;4976588;58;1134579;-73
2021/04/08 13:13:00;;;;;;;8.70;3.60;;;;;;;6.58;74.79;100896.23;4892149;59;1134735;-75
2021/04/08 13:18:26;;;;;;;5.40;2.67;;;;;;;6.58;74.37;100904.96;4884594;59;1134670;-74
2021/04/08 13:23:53;;;;;;;4.57;2.53;;;;;;;6.57;73.78;100907.70;4904841;57;1134652;-71
2021/04/08 13:29:19;;;;;;;2.03;1.03;;;;;;;6.33;74.72;100918.59;4902583;57;1134450;-74
2021/04/08 13:34:45;;;;;;;2.22;2.02;;;;;;;5.87;77.25;100933.72;4947934;57;1134528;-75
2021/04/08 13:40:14;;;;;;;2.42;1.30;;;;;;;5.85;79.19;100941.67;4953262;57;1134532;-72
2021/04/08 13:45:39;;;;;;;2.57;1.50;;;;;;;5.94;78.90;100953.06;5018036;57;1134432;-73
2021/04/08 13:51:05;;;;;;;2.47;1.00;;;;;;;5.86;77.37;100956.49;4974768;57;1134509;-76
2021/04/08 13:56:32;;;;;;;1.60;1.50;;;;;;;5.58;76.29;101017.39;4946890;58;1134608;-75
2021/04/08 14:01:57;;;;;;;333.80;144.60;;;;;;;4.34;76.82;101021.91;4926010;58;1134532;-75
2021/04/08 14:07:24;;;;;;;18.90;9.87;;;;;;;3.70;79.42;101037.70;4947029;58;1142934;-74
2021/04/08 14:12:51;;;;;;;7.80;2.70;;;;;;;3.42;81.76;101032.29;4840680;58;1136963;-72
2021/04/08 14:18:16;;;;;;;18.60;6.13;;;;;;;3.26;83.92;101035.11;4958964;58;1134362;-74
2021/04/08 14:23:41;;;;;;;30.20;9.57;;;;;;;3.35;84.14;101026.93;4845478;59;1136772;-76
2021/04/08 14:29:06;;;;;;;30.70;10.35;;;;;;;3.35;84.14;101026.93;4786024;60;1136785;-73
2021/04/08 14:34:35;;;;;;;5.77;2.37;;;;;;;3.48;84.08;101024.67;4936479;58;1138705;-71
2021/04/08 14:40:01;;;;;;;11.88;3.42;;;;;;;3.62;84.89;101017.56;4870992;59;1134645;-76
2021/04/08 14:45:26;;;;;;;16.53;4.00;;;;;;;3.77;84.95;101012.55;4971291;57;1136652;-73
2021/04/08 14:50:56;;;;;;;17.00;5.17;;;;;;;3.97;85.18;101014.80;4999657;58;1137109;-74
2021/04/08 14:56:19;;;;;;;11.77;3.93;;;;;;;4.19;85.37;101020.80;4999716;58;1136842;-74
2021/04/08 15:01:44;;;;;;;16.12;6.58;;;;;;;4.41;85.58;101021.58;4906554;58;1137032;-74
2021/04/08 15:07:10;;;;;;;14.55;5.50;;;;;;;4.66;85.64;101031.80;4820143;60;1138965;-76
2021/04/08 15:12:37;;;;;;;14.00;6.80;;;;;;;4.86;85.30;101025.21;4826211;60;1138724;-73
2021/04/08 15:18:03;;;;;;;40.33;14.83;;;;;;;5.00;84.73;101023.26;4896981;59;1138723;-78
2021/04/08 15:23:29;;;;;;;127.13;58.50;;;;;;;5.11;84.45;101026.69;4896694;59;1138756;-79
2021/04/08 15:28:54;;;;;;;18.53;7.10;;;;;;;5.18;84.23;101034.20;4895734;59;1142779;-73
2021/04/08 15:34:21;;;;;;;13.30;5.57;;;;;;;5.22;84.21;101031.80;4896043;59;1138818;-73
2021/04/08 15:39:47;;;;;;;77.03;21.43;;;;;;;5.28;84.06;101042.47;4904530;59;1139024;-74
2021/04/08 15:45:12;;;;;;;111.20;37.63;;;;;;;5.31;83.96;101044.95;5008843;57;1141100;-75
2021/04/08 15:50:38;;;;;;;97.73;37.07;;;;;;;5.27;83.57;101051.27;5018206;57;1140852;-73
2021/04/08 15:56:03;;;;;;;156.97;54.10;;;;;;;5.27;83.54;101055.20;5026511;57;1141248;-74
2021/04/08 16:01:30;;;;;;;209.15;68.12;;;;;;;5.27;83.45;101054.73;5008245;57;1143192;-73
2021/04/08 16:06:56;;;;;;;177.67;59.83;;;;;;;5.24;83.33;101059.27;5009035;57;1143157;-75
2021/04/08 16:12:22;;;;;;;143.77;43.77;;;;;;;5.27;83.46;101068.31;5008241;57;1142776;-75
2021/04/08 16:17:47;;;;;;;445.07;191.27;;;;;;;5.27;83.47;101077.03;4896840;59;1141036;-74
2021/04/08 16:23:12;;;;;;;267.75;93.87;;;;;;;5.27;83.59;101078.80;4933054;57;1144895;-74
2021/04/08 16:28:39;;;;;;;49.97;19.03;;;;;;;5.27;83.58;101082.27;4937426;58;1142925;-72
2021/04/08 16:34:05;;;;;;;32.03;12.83;;;;;;;5.25;83.62;101082.80;4757581;60;1148625;-74
2021/04/08 16:39:33;;;;;;;28.83;11.27;;;;;;;5.24;83.46;101082.41;4785290;58;1140912;-76
2021/04/08 16:44:57;;;;;;;23.47;9.70;;;;;;;5.19;83.38;101083.56;4786139;59;1140900;-73
2021/04/08 16:50:23;;;;;;;28.03;12.43;;;;;;;5.17;83.53;101093.27;4826098;59;1136825;-72
2021/04/08 16:55:49;;;;;;;28.87;12.77;;;;;;;5.13;83.38;101095.17;4837107;59;1140751;-73
2021/04/08 17:01:14;;;;;;;29.80;10.63;;;;;;;5.14;83.43;101098.64;4981758;57;1140867;-73
2021/04/08 17:06:40;;;;;;;35.83;14.60;;;;;;;5.06;83.43;101105.53;4986156;57;1138998;-74
2021/04/08 17:12:06;;;;;;;27.40;9.40;;;;;;;5.02;83.56;101104.45;4962617;55;1150363;-75
2021/04/08 17:17:31;;;;;;;23.00;9.37;;;;;;;4.94;83.58;101106.95;5008933;57;1138639;-73
2021/04/08 17:22:57;;;;;;;92.17;33.13;;;;;;;4.88;83.58;101115.10;5020990;57;1136584;-73
2021/04/08 17:28:22;;;;;;;928.77;408.33;;;;;;;4.86;82.94;101118.70;4942783;58;1140695;-73
2021/04/08 17:33:47;;;;;;;145.47;58.83;;;;;;;4.79;82.21;101123.36;5043993;57;1142733;-72
2021/04/08 17:39:13;;;;;;;133.00;51.40;;;;;;;4.73;81.30;101124.95;4955561;58;1141127;-76
2021/04/08 17:44:39;;;;;;;18.47;9.37;;;;;;;4.66;80.30;101128.74;4944072;59;1140696;-77
2021/04/08 17:50:08;;;;;;;12.77;3.47;;;;;;;4.63;80.07;101135.88;4967205;58;1140805;-75
2021/04/08 17:55:35;;;;;;;9.13;2.23;;;;;;;4.60;79.53;101142.09;4947367;58;1136432;-75
2021/04/08 18:01:00;;;;;;;7.07;2.33;;;;;;;4.57;78.99;101148.80;5036432;56;1134223;-74
2021/04/08 18:06:26;;;;;;;14.03;4.57;;;;;;;4.54;78.24;101150.23;5023951;57;1134337;-74
2021/04/08 18:11:51;;;;;;;9.37;2.87;;;;;;;4.48;78.59;101160.50;5018124;57;1136306;-74
2021/04/08 18:17:17;;;;;;;12.18;4.20;;;;;;;4.49;78.04;101165.28;4938217;58;1134303;-74
2021/04/08 18:22:45;;;;;;;11.85;3.35;;;;;;;4.45;77.78;101165.01;5083085;56;1136656;-73
2021/04/08 18:28:11;;;;;;;9.73;3.63;;;;;;;4.42;76.93;101174.33;5106772;57;1137105;-72
2021/04/08 18:33:36;;;;;;;6.50;2.97;;;;;;;4.36;76.78;101174.11;4992963;57;1134417;-74
2021/04/08 18:39:04;;;;;;;40.50;15.07;;;;;;;4.30;76.52;101180.05;4986059;57;1134370;-72
2021/04/08 18:44:31;;;;;;;35.67;14.07;;;;;;;4.25;76.17;101184.19;5022652;56;1138604;-73
2021/04/08 18:49:57;;;;;;;19.80;6.67;;;;;;;4.21;75.92;101182.59;5055514;57;1138766;-74
2021/04/08 18:55:26;;;;;;;11.37;3.90;;;;;;;4.19;74.57;101187.04;5025024;57;1136861;-75
2021/04/08 19:00:52;;;;;;;10.93;3.83;;;;;;;4.17;74.90;101181.86;4998732;57;1136986;-71
2021/04/08 19:06:17;;;;;;;14.63;3.40;;;;;;;4.14;74.84;101179.82;5042609;57;1136578;-73
2021/04/08 19:11:47;;;;;;;10.47;4.43;;;;;;;4.11;74.30;101185.20;4980579;58;1137043;-75
2021/04/08 19:17:12;;;;;;;11.05;4.00;;;;;;;4.08;74.18;101189.25;4934224;58;1136735;-74
2021/04/08 19:22:37;;;;;;;19.30;5.93;;;;;;;4.07;74.12;101192.32;4866835;59;1136890;-72
2021/04/08 19:28:04;;;;;;;13.53;4.70;;;;;;;4.04;73.96;101195.05;4882514;58;1136432;-73
2021/04/08 19:33:32;;;;;;;15.27;5.23;;;;;;;4.03;73.52;101193.80;4869630;59;1136583;-75
2021/04/08 19:38:57;;;;;;;24.80;7.37;;;;;;;3.96;73.28;101196.28;4949550;58;1136362;-75
2021/04/08 19:44:22;;;;;;;41.42;10.00;;;;;;;3.86;73.09;101196.63;4946376;58;1136312;-75
2021/04/08 19:49:48;;;;;;;44.23;10.90;;;;;;;3.86;72.88;101192.70;4853101;58;1138889;-74
2021/04/08 19:55:16;;;;;;;91.87;29.83;;;;;;;3.83;73.16;101199.81;4795827;60;1138609;-75
2021/04/08 20:00:40;;;;;;;56.80;15.43;;;;;;;3.80;73.51;101194.27;4811650;59;1138602;-75
2021/04/08 20:06:07;;;;;;;18.55;5.95;;;;;;;3.84;73.39;101208.05;4898685;59;1138618;-75
2021/04/08 20:11:33;;;;;;;42.13;12.30;;;;;;;3.80;73.63;101203.42;4885424;59;1136536;-76
2021/04/08 20:16:59;;;;;;;49.13;11.77;;;;;;;3.80;72.80;101207.80;4826553;59;1138859;-74
2021/04/08 20:22:24;;;;;;;17.42;5.08;;;;;;;3.75;72.41;101213.20;4803724;60;1139153;-73
2021/04/08 20:27:50;;;;;;;10.50;4.13;;;;;;;3.70;70.60;101210.36;4833634;59;1136872;-74
2021/04/08 20:33:17;;;;;;;10.58;3.65;;;;;;;3.66;69.49;101221.41;4856372;59;1136742;-74
2021/04/08 20:38:44;;;;;;;4.37;2.20;;;;;;;3.63;69.38;101207.14;4883290;59;1136614;-74
2021/04/08 20:44:09;;;;;;;9.90;4.27;;;;;;;3.60;68.46;101213.78;4857344;59;1144226;-75
2021/04/08 20:49:35;;;;;;;28.60;5.33;;;;;;;3.58;68.89;101210.37;4918886;58;1134454;-74
2021/04/08 20:55:01;;;;;;;20.13;3.93;;;;;;;3.54;68.30;101214.00;4891611;59;1136797;-73
2021/04/08 21:00:27;;;;;;;15.60;5.20;;;;;;;3.51;68.90;101214.14;4889470;59;1136559;-73
2021/04/08 21:05:55;;;;;;;34.30;10.20;;;;;;;3.47;69.02;101217.77;4877847;59;1136772;-75
2021/04/08 21:11:22;;;;;;;45.50;15.80;;;;;;;3.43;68.91;101225.33;4855789;58;1138406;-73
2021/04/08 21:16:48;;;;;;;41.90;10.47;;;;;;;3.38;69.04;101223.33;4945956;57;1138553;-77
2021/04/08 21:22:15;;;;;;;46.77;11.53;;;;;;;3.32;68.97;101227.48;4952519;58;1138399;-72
2021/04/08 21:27:42;;;;;;;25.37;7.93;;;;;;;3.27;69.60;101226.79;4999335;57;1138580;-76
2021/04/08 21:33:08;;;;;;;21.48;5.78;;;;;;;3.19;69.24;101227.08;5081187;57;1136397;-74
2021/04/08 21:38:34;;;;;;;33.20;8.60;;;;;;;3.10;69.51;101224.33;4957961;58;1136264;-73
2021/04/08 21:44:00;;;;;;;30.33;8.80;;;;;;;3.05;69.86;101221.05;4916231;59;1136781;-76
2021/04/08 21:49:27;;;;;;;34.80;8.40;;;;;;;2.99;70.03;101216.02;4823572;59;1136466;-77
2021/04/08 21:54:51;;;;;;;31.97;9.07;;;;;;;2.95;70.15;101219.64;4846000;59;1136812;-76
2021/04/08 22:00:33;;;;;;;32.40;9.25;;;;;;;2.88;70.37;101231.23;4851405;58;1137214;-76
2021/04/08 22:05:58;;;;;;;29.90;8.33;;;;;;;2.81;70.55;101231.88;4834530;59;1136696;-74
2021/04/08 22:11:24;;;;;;;29.92;8.60;;;;;;;2.78;70.77;101233.28;4840981;59;1136484;-76
2021/04/08 22:16:50;;;;;;;29.83;9.37;;;;;;;2.73;70.98;101232.61;4831367;59;1136730;-74
2021/04/08 22:22:16;;;;;;;20.15;6.00;;;;;;;2.69;71.21;101224.91;4829811;59;1136872;-73
2021/04/08 22:27:42;;;;;;;23.60;6.20;;;;;;;2.66;71.37;101230.23;4829605;59;1136492;-76
2021/04/08 22:33:11;;;;;;;23.87;5.87;;;;;;;2.60;71.49;101231.77;4829804;59;1136533;-77
2021/04/08 22:38:37;;;;;;;33.43;7.17;;;;;;;2.56;71.65;101219.25;4830945;59;1136583;-76
2021/04/08 22:44:03;;;;;;;19.50;5.23;;;;;;;2.53;71.78;101225.88;4829707;59;1136660;-74
2021/04/08 22:49:29;;;;;;;23.30;5.30;;;;;;;2.53;72.01;101222.41;4829512;59;1136580;-73
2021/04/08 22:54:55;;;;;;;44.37;10.87;;;;;;;2.53;72.06;101223.27;4829505;59;1136249;-75
2021/04/08 23:00:26;;;;;;;33.42;6.60;;;;;;;2.53;72.18;101218.05;4833879;59;1138589;-76
2021/04/08 23:05:52;;;;;;;27.03;6.07;;;;;;;2.54;72.23;101221.06;4948706;58;1136227;-73
2021/04/08 23:11:17;;;;;;;29.15;6.33;;;;;;;2.55;72.32;101221.91;4950110;57;1136464;-74
2021/04/08 23:16:42;;;;;;;21.73;5.43;;;;;;;2.54;72.43;101215.84;4950684;57;1136782;-76
2021/04/08 23:22:08;;;;;;;15.37;4.57;;;;;;;2.54;72.59;101211.92;4950345;57;1136330;-76
2021/04/08 23:27:33;;;;;;;17.23;5.53;;;;;;;2.57;72.67;101209.66;4949847;57;1136448;-75
2021/04/08 23:32:59;;;;;;;15.97;5.57;;;;;;;2.55;72.70;101207.55;4968470;58;1136705;-74
2021/04/08 23:38:24;;;;;;;10.72;4.17;;;;;;;2.52;72.89;101199.36;4976692;58;1136772;-73
2021/04/08 23:43:50;;;;;;;17.63;5.63;;;;;;;2.51;72.97;101195.05;4986900;58;1136567;-76
2021/04/08 23:49:21;;;;;;;19.73;6.42;;;;;;;2.47;73.04;101189.52;4906555;59;1136559;-72
2021/04/08 23:54:46;;;;;;;25.50;11.23;;;;;;;2.41;73.22;101178.84;5020507;57;1136552;-74
